sensor_id;sensor_type;location;lat;lon;timestamp;pressure;altitude;pressure_sealevel;temperature;humidity
19005;BME280;9635;52.078;8.648;2023-05-23T00:00:14;100298.22;;;13.78;92.21
19005;BME280;9635;52.078;8.648;2023-05-23T00:05:17;100290.34;;;13.94;92.55
19005;BME280;9635;52.078;8.648;2023-05-23T00:10:21;100286.53;;;14.15;91.66
19005;BME280;9635;52.078;8.648;2023-05-23T00:15:24;100295.03;;;14.20;92.86
19005;BME280;9635;52.078;8.648;2023-05-23T00:20:27;100295.16;;;13.63;91.89
19005;BME280;9635;52.078;8.648;2023-05-23T00:25:32;100286.97;;;13.83;90.77
19005;BME280;9635;52.078;8.648;2023-05-23T00:30:36;100288.25;;;13.79;91.20
19005;BME280;9635;52.078;8.648;2023-05-23T00:35:39;100297.53;;;13.66;91.62
19005;BME280;9635;52.078;8.648;2023-05-23T00:40:44;100295.69;;;13.57;91.21
19005;BME280;9635;52.078;8.648;2023-05-23T00:45:47;100297.38;;;13.78;91.52
19005;BME280;9635;52.078;8.648;2023-05-23T00:50:50;100304.97;;;13.92;91.48
19005;BME280;9635;52.078;8.648;2023-05-23T00:55:54;100300.13;;;13.96;91.37
19005;BME280;9635;52.078;8.648;2023-05-23T01:00:58;100300.53;;;14.01;91.28
19005;BME280;9635;52.078;8.648;2023-05-23T01:06:01;100301.25;;;14.03;92.18
19005;BME280;9635;52.078;8.648;2023-05-23T01:11:12;100315.59;;;14.03;92.30
19005;BME280;9635;52.078;8.648;2023-05-23T01:16:29;100300.44;;;13.92;91.39
19005;BME280;9635;52.078;8.648;2023-05-23T01:21:35;100302.69;;;13.97;90.94
19005;BME280;9635;52.078;8.648;2023-05-23T01:26:50;100308.63;;;14.01;91.83
19005;BME280;9635;52.078;8.648;2023-05-23T01:31:58;100302.38;;;14.00;90.19
19005;BME280;9635;52.078;8.648;2023-05-23T01:37:07;100310.59;;;14.08;91.10
19005;BME280;9635;52.078;8.648;2023-05-23T01:42:10;100307.16;;;14.16;91.14
19005;BME280;9635;52.078;8.648;2023-05-23T01:47:15;100305.41;;;13.87;90.82
19005;BME280;9635;52.078;8.648;2023-05-23T01:52:19;100313.56;;;13.78;91.89
19005;BME280;9635;52.078;8.648;2023-05-23T01:57:23;100313.75;;;13.66;92.68
19005;BME280;9635;52.078;8.648;2023-05-23T02:02:28;100321.03;;;13.17;93.64
19005;BME280;9635;52.078;8.648;2023-05-23T02:07:33;100327.41;;;13.55;91.47
19005;BME280;9635;52.078;8.648;2023-05-23T02:12:36;100330.41;;;13.52;91.90
19005;BME280;9635;52.078;8.648;2023-05-23T02:17:40;100348.28;;;13.43;90.93
19005;BME280;9635;52.078;8.648;2023-05-23T02:22:44;100339.75;;;13.38;89.70
19005;BME280;9635;52.078;8.648;2023-05-23T02:27:47;100345.00;;;13.01;90.19
19005;BME280;9635;52.078;8.648;2023-05-23T02:32:51;100350.28;;;13.41;89.07
19005;BME280;9635;52.078;8.648;2023-05-23T02:37:54;100359.78;;;13.36;87.95
19005;BME280;9635;52.078;8.648;2023-05-23T02:42:57;100349.84;;;13.07;89.55
19005;BME280;9635;52.078;8.648;2023-05-23T02:48:01;100358.47;;;12.81;88.93
19005;BME280;9635;52.078;8.648;2023-05-23T02:53:04;100354.56;;;12.55;90.92
19005;BME280;9635;52.078;8.648;2023-05-23T02:58:07;100355.19;;;12.78;89.91
19005;BME280;9635;52.078;8.648;2023-05-23T03:03:11;100353.94;;;12.82;88.07
19005;BME280;9635;52.078;8.648;2023-05-23T03:08:14;100349.13;;;13.05;88.59
19005;BME280;9635;52.078;8.648;2023-05-23T03:13:17;100360.19;;;13.02;88.93
19005;BME280;9635;52.078;8.648;2023-05-23T03:18:21;100349.69;;;13.18;87.97
19005;BME280;9635;52.078;8.648;2023-05-23T03:23:24;100357.06;;;12.97;88.66
19005;BME280;9635;52.078;8.648;2023-05-23T03:28:27;100342.59;;;13.17;88.41
19005;BME280;9635;52.078;8.648;2023-05-23T03:33:31;100347.41;;;12.85;89.41
19005;BME280;9635;52.078;8.648;2023-05-23T03:38:34;100348.97;;;13.16;88.85
19005;BME280;9635;52.078;8.648;2023-05-23T03:43:37;100349.47;;;12.52;90.38
19005;BME280;9635;52.078;8.648;2023-05-23T03:48:41;100358.13;;;12.55;90.83
19005;BME280;9635;52.078;8.648;2023-05-23T03:53:44;100348.50;;;12.63;90.55
19005;BME280;9635;52.078;8.648;2023-05-23T03:58:48;100355.03;;;12.60;91.60
19005;BME280;9635;52.078;8.648;2023-05-23T04:03:52;100349.34;;;12.53;91.69
19005;BME280;9635;52.078;8.648;2023-05-23T04:08:57;100357.50;;;12.11;94.09
19005;BME280;9635;52.078;8.648;2023-05-23T04:14:00;100352.88;;;12.54;93.04
19005;BME280;9635;52.078;8.648;2023-05-23T04:19:05;100357.44;;;12.53;93.20
19005;BME280;9635;52.078;8.648;2023-05-23T04:24:09;100369.00;;;12.44;93.22
19005;BME280;9635;52.078;8.648;2023-05-23T04:29:12;100366.75;;;12.49;93.73
19005;BME280;9635;52.078;8.648;2023-05-23T04:34:17;100379.72;;;12.65;92.92
19005;BME280;9635;52.078;8.648;2023-05-23T04:39:23;100364.59;;;12.83;91.95
19005;BME280;9635;52.078;8.648;2023-05-23T04:44:46;100380.34;;;12.98;91.62
19005;BME280;9635;52.078;8.648;2023-05-23T04:49:57;100379.56;;;12.26;94.32
19005;BME280;9635;52.078;8.648;2023-05-23T04:55:01;100382.28;;;12.76;93.33
19005;BME280;9635;52.078;8.648;2023-05-23T05:00:05;100384.13;;;12.86;91.56
19005;BME280;9635;52.078;8.648;2023-05-23T05:05:13;100398.34;;;12.88;91.80
19005;BME280;9635;52.078;8.648;2023-05-23T05:10:16;100394.72;;;13.27;90.09
19005;BME280;9635;52.078;8.648;2023-05-23T05:15:19;100400.16;;;12.77;92.09
19005;BME280;9635;52.078;8.648;2023-05-23T05:20:28;100400.28;;;12.66;92.26
19005;BME280;9635;52.078;8.648;2023-05-23T05:25:31;100397.72;;;12.65;93.26
19005;BME280;9635;52.078;8.648;2023-05-23T05:30:36;100389.53;;;12.86;92.23
19005;BME280;9635;52.078;8.648;2023-05-23T05:35:41;100401.75;;;12.90;92.08
19005;BME280;9635;52.078;8.648;2023-05-23T05:40:45;100394.53;;;12.90;92.34
19005;BME280;9635;52.078;8.648;2023-05-23T05:45:49;100402.16;;;12.75;92.86
19005;BME280;9635;52.078;8.648;2023-05-23T05:50:54;100417.03;;;12.39;94.68
19005;BME280;9635;52.078;8.648;2023-05-23T05:55:56;100410.44;;;13.03;91.91
19005;BME280;9635;52.078;8.648;2023-05-23T06:00:59;100420.06;;;12.96;90.83
19005;BME280;9635;52.078;8.648;2023-05-23T06:06:04;100432.09;;;12.82;91.14
19005;BME280;9635;52.078;8.648;2023-05-23T06:11:07;100428.84;;;12.78;90.88
19005;BME280;9635;52.078;8.648;2023-05-23T06:16:10;100427.19;;;13.07;90.11
19005;BME280;9635;52.078;8.648;2023-05-23T06:21:15;100426.97;;;12.38;92.71
19005;BME280;9635;52.078;8.648;2023-05-23T06:26:22;100437.22;;;12.85;90.18
19005;BME280;9635;52.078;8.648;2023-05-23T06:31:26;100435.97;;;12.49;91.60
19005;BME280;9635;52.078;8.648;2023-05-23T06:36:30;100448.16;;;12.93;89.43
19005;BME280;9635;52.078;8.648;2023-05-23T06:41:33;100451.97;;;12.50;90.01
19005;BME280;9635;52.078;8.648;2023-05-23T06:46:36;100459.47;;;12.77;88.10
19005;BME280;9635;52.078;8.648;2023-05-23T06:51:42;100463.09;;;12.67;88.86
19005;BME280;9635;52.078;8.648;2023-05-23T06:56:45;100467.44;;;12.27;89.28
19005;BME280;9635;52.078;8.648;2023-05-23T07:01:49;100484.28;;;12.41;88.42
19005;BME280;9635;52.078;8.648;2023-05-23T07:06:53;100487.81;;;12.72;86.90
19005;BME280;9635;52.078;8.648;2023-05-23T07:11:56;100502.28;;;12.40;87.76
19005;BME280;9635;52.078;8.648;2023-05-23T07:17:00;100507.09;;;12.67;86.31
19005;BME280;9635;52.078;8.648;2023-05-23T07:22:04;100501.53;;;12.17;88.02
19005;BME280;9635;52.078;8.648;2023-05-23T07:27:10;100519.69;;;12.36;87.62
19005;BME280;9635;52.078;8.648;2023-05-23T07:32:13;100534.84;;;12.89;84.38
19005;BME280;9635;52.078;8.648;2023-05-23T07:37:18;100540.50;;;12.13;85.25
19005;BME280;9635;52.078;8.648;2023-05-23T07:42:22;100547.34;;;12.59;84.42
19005;BME280;9635;52.078;8.648;2023-05-23T07:47:25;100550.16;;;11.83;86.79
19005;BME280;9635;52.078;8.648;2023-05-23T07:52:29;100552.94;;;12.46;83.90
19005;BME280;9635;52.078;8.648;2023-05-23T07:57:34;100554.41;;;12.18;84.14
19005;BME280;9635;52.078;8.648;2023-05-23T08:02:38;100566.75;;;12.32;83.29
19005;BME280;9635;52.078;8.648;2023-05-23T08:07:42;100581.91;;;12.01;84.52
19005;BME280;9635;52.078;8.648;2023-05-23T08:12:45;100592.22;;;12.49;83.74
19005;BME280;9635;52.078;8.648;2023-05-23T08:17:51;100592.59;;;12.23;84.94
19005;BME280;9635;52.078;8.648;2023-05-23T08:22:59;100608.50;;;12.26;85.87
19005;BME280;9635;52.078;8.648;2023-05-23T08:28:03;100616.84;;;12.23;84.95
19005;BME280;9635;52.078;8.648;2023-05-23T08:33:22;100618.88;;;12.31;85.15
19005;BME280;9635;52.078;8.648;2023-05-23T08:38:29;100624.50;;;12.28;85.03
19005;BME280;9635;52.078;8.648;2023-05-23T08:43:43;100632.38;;;12.20;85.39
19005;BME280;9635;52.078;8.648;2023-05-23T08:48:54;100641.78;;;12.25;86.11
19005;BME280;9635;52.078;8.648;2023-05-23T08:54:01;100629.22;;;12.47;85.30
19005;BME280;9635;52.078;8.648;2023-05-23T08:59:04;100641.19;;;12.75;84.35
19005;BME280;9635;52.078;8.648;2023-05-23T09:04:09;100643.94;;;12.10;84.09
19005;BME280;9635;52.078;8.648;2023-05-23T09:09:24;100654.66;;;12.22;86.10
19005;BME280;9635;52.078;8.648;2023-05-23T09:14:28;100675.19;;;12.23;84.37
19005;BME280;9635;52.078;8.648;2023-05-23T09:19:39;100681.41;;;12.02;84.15
19005;BME280;9635;52.078;8.648;2023-05-23T09:24:55;100678.13;;;11.99;84.93
19005;BME280;9635;52.078;8.648;2023-05-23T09:30:04;100691.84;;;11.73;85.38
19005;BME280;9635;52.078;8.648;2023-05-23T09:35:08;100704.97;;;11.44;84.77
19005;BME280;9635;52.078;8.648;2023-05-23T09:40:14;100702.59;;;11.84;83.66
19005;BME280;9635;52.078;8.648;2023-05-23T09:45:28;100718.91;;;11.71;83.88
19005;BME280;9635;52.078;8.648;2023-05-23T09:50:32;100711.19;;;11.33;85.77
19005;BME280;9635;52.078;8.648;2023-05-23T09:55:38;100720.13;;;11.56;84.48
19005;BME280;9635;52.078;8.648;2023-05-23T10:00:42;100737.94;;;12.02;84.36
19005;BME280;9635;52.078;8.648;2023-05-23T10:05:47;100733.94;;;11.74;82.23
19005;BME280;9635;52.078;8.648;2023-05-23T10:16:37;100745.66;;;11.95;81.72
19005;BME280;9635;52.078;8.648;2023-05-23T10:21:43;100759.22;;;12.05;81.23
19005;BME280;9635;52.078;8.648;2023-05-23T10:26:52;100766.94;;;12.10;80.84
19005;BME280;9635;52.078;8.648;2023-05-23T10:31:59;100778.59;;;11.88;81.66
19005;BME280;9635;52.078;8.648;2023-05-23T10:37:04;100776.22;;;12.17;78.94
19005;BME280;9635;52.078;8.648;2023-05-23T10:42:11;100765.63;;;11.93;78.07
19005;BME280;9635;52.078;8.648;2023-05-23T10:47:25;100777.56;;;12.11;77.82
19005;BME280;9635;52.078;8.648;2023-05-23T10:52:38;100774.63;;;12.69;74.36
19005;BME280;9635;52.078;8.648;2023-05-23T10:57:42;100777.28;;;12.48;72.41
19005;BME280;9635;52.078;8.648;2023-05-23T11:02:55;100779.84;;;12.50;74.02
19005;BME280;9635;52.078;8.648;2023-05-23T11:08:09;100786.34;;;12.79;73.92
19005;BME280;9635;52.078;8.648;2023-05-23T11:13:14;100787.06;;;13.86;69.33
19005;BME280;9635;52.078;8.648;2023-05-23T11:18:23;100783.97;;;13.60;66.78
19005;BME280;9635;52.078;8.648;2023-05-23T11:23:39;100805.38;;;12.99;68.63
19005;BME280;9635;52.078;8.648;2023-05-23T11:28:54;100801.31;;;13.04;69.36
19005;BME280;9635;52.078;8.648;2023-05-23T11:33:59;100804.06;;;13.35;66.51
19005;BME280;9635;52.078;8.648;2023-05-23T11:39:03;100807.59;;;14.08;63.80
19005;BME280;9635;52.078;8.648;2023-05-23T11:44:12;100808.19;;;15.40;63.83
19005;BME280;9635;52.078;8.648;2023-05-23T11:49:16;100815.06;;;14.95;60.12
19005;BME280;9635;52.078;8.648;2023-05-23T11:54:22;100813.41;;;14.04;62.42
19005;BME280;9635;52.078;8.648;2023-05-23T11:59:25;100831.13;;;14.37;62.08
19005;BME280;9635;52.078;8.648;2023-05-23T12:04:30;100829.84;;;14.91;59.99
19005;BME280;9635;52.078;8.648;2023-05-23T12:09:41;100837.63;;;14.46;61.16
19005;BME280;9635;52.078;8.648;2023-05-23T12:14:44;100850.22;;;14.35;61.18
19005;BME280;9635;52.078;8.648;2023-05-23T12:19:48;100837.72;;;14.04;59.54
19005;BME280;9635;52.078;8.648;2023-05-23T12:24:52;100835.97;;;15.42;56.42
19005;BME280;9635;52.078;8.648;2023-05-23T12:30:07;100840.31;;;16.09;55.43
19005;BME280;9635;52.078;8.648;2023-05-23T12:35:13;100830.22;;;17.64;52.14
19005;BME280;9635;52.078;8.648;2023-05-23T12:40:18;100839.22;;;18.76;48.48
19005;BME280;9635;52.078;8.648;2023-05-23T12:45:22;100847.28;;;19.35;46.62
19005;BME280;9635;52.078;8.648;2023-05-23T12:50:26;100841.94;;;18.25;45.43
19005;BME280;9635;52.078;8.648;2023-05-23T12:55:29;100848.53;;;17.88;47.97
19005;BME280;9635;52.078;8.648;2023-05-23T13:00:32;100835.16;;;16.71;47.82
19005;BME280;9635;52.078;8.648;2023-05-23T13:05:37;100857.97;;;16.78;49.72
19005;BME280;9635;52.078;8.648;2023-05-23T13:10:40;100852.28;;;18.64;47.11
19005;BME280;9635;52.078;8.648;2023-05-23T13:15:43;100844.78;;;17.89;47.37
19005;BME280;9635;52.078;8.648;2023-05-23T13:20:50;100849.69;;;16.98;48.36
19005;BME280;9635;52.078;8.648;2023-05-23T13:25:52;100853.44;;;17.15;49.06
19005;BME280;9635;52.078;8.648;2023-05-23T13:30:55;100861.88;;;16.66;49.87
19005;BME280;9635;52.078;8.648;2023-05-23T13:36:00;100863.56;;;16.67;47.68
19005;BME280;9635;52.078;8.648;2023-05-23T13:41:02;100863.94;;;16.82;49.05
19005;BME280;9635;52.078;8.648;2023-05-23T13:46:05;100856.69;;;18.57;45.48
19005;BME280;9635;52.078;8.648;2023-05-23T13:51:09;100863.88;;;17.28;45.26
19005;BME280;9635;52.078;8.648;2023-05-23T13:56:13;100866.28;;;17.31;46.87
19005;BME280;9635;52.078;8.648;2023-05-23T14:01:17;100860.44;;;18.64;43.66
19005;BME280;9635;52.078;8.648;2023-05-23T14:06:21;100865.75;;;18.31;43.73
19005;BME280;9635;52.078;8.648;2023-05-23T14:11:24;100859.84;;;19.85;39.95
19005;BME280;9635;52.078;8.648;2023-05-23T14:16:29;100862.06;;;18.83;41.92
19005;BME280;9635;52.078;8.648;2023-05-23T14:21:33;100866.66;;;18.06;42.58
19005;BME280;9635;52.078;8.648;2023-05-23T14:26:36;100864.81;;;19.16;39.91
19005;BME280;9635;52.078;8.648;2023-05-23T14:31:39;100861.38;;;18.89;41.51
19005;BME280;9635;52.078;8.648;2023-05-23T14:36:43;100859.38;;;19.81;41.31
19005;BME280;9635;52.078;8.648;2023-05-23T14:41:47;100862.03;;;21.16;39.31
19005;BME280;9635;52.078;8.648;2023-05-23T14:46:49;100863.78;;;19.09;39.15
19005;BME280;9635;52.078;8.648;2023-05-23T14:51:53;100880.34;;;16.35;45.40
19005;BME280;9635;52.078;8.648;2023-05-23T14:56:56;100885.66;;;16.54;46.06
19005;BME280;9635;52.078;8.648;2023-05-23T15:02:01;100885.31;;;17.31;45.26
19005;BME280;9635;52.078;8.648;2023-05-23T15:07:05;100882.28;;;17.34;44.58
19005;BME280;9635;52.078;8.648;2023-05-23T15:12:08;100886.63;;;16.26;45.45
19005;BME280;9635;52.078;8.648;2023-05-23T15:17:11;100882.16;;;16.34;44.58
19005;BME280;9635;52.078;8.648;2023-05-23T15:22:21;100876.63;;;15.89;44.91
19005;BME280;9635;52.078;8.648;2023-05-23T15:27:40;100879.34;;;16.26;46.25
19005;BME280;9635;52.078;8.648;2023-05-23T15:32:42;100878.91;;;17.22;43.96
19005;BME280;9635;52.078;8.648;2023-05-23T15:37:47;100889.56;;;16.70;43.97
19005;BME280;9635;52.078;8.648;2023-05-23T15:42:50;100884.84;;;17.17;42.57
19005;BME280;9635;52.078;8.648;2023-05-23T15:47:53;100883.00;;;16.90;43.89
19005;BME280;9635;52.078;8.648;2023-05-23T15:52:57;100894.75;;;16.35;44.67
19005;BME280;9635;52.078;8.648;2023-05-23T15:58:00;100893.28;;;16.41;45.56
19005;BME280;9635;52.078;8.648;2023-05-23T16:03:03;100886.00;;;16.69;44.66
19005;BME280;9635;52.078;8.648;2023-05-23T16:08:07;100891.69;;;16.01;45.50
19005;BME280;9635;52.078;8.648;2023-05-23T16:13:10;100889.75;;;16.58;44.79
19005;BME280;9635;52.078;8.648;2023-05-23T16:18:13;100889.50;;;16.97;43.82
19005;BME280;9635;52.078;8.648;2023-05-23T16:23:18;100887.03;;;17.58;42.88
19005;BME280;9635;52.078;8.648;2023-05-23T16:28:21;100891.41;;;17.51;42.08
19005;BME280;9635;52.078;8.648;2023-05-23T16:33:24;100885.41;;;17.91;40.58
19005;BME280;9635;52.078;8.648;2023-05-23T16:38:28;100887.47;;;17.71;40.77
19005;BME280;9635;52.078;8.648;2023-05-23T16:43:31;100882.03;;;18.57;40.07
19005;BME280;9635;52.078;8.648;2023-05-23T16:48:34;100867.91;;;21.65;34.74
19005;BME280;9635;52.078;8.648;2023-05-23T16:53:39;100881.63;;;21.42;35.01
19005;BME280;9635;52.078;8.648;2023-05-23T16:58:41;100880.53;;;22.49;32.02
19005;BME280;9635;52.078;8.648;2023-05-23T17:03:44;100868.06;;;23.90;32.03
19005;BME280;9635;52.078;8.648;2023-05-23T17:08:50;100888.56;;;20.68;33.70
19005;BME280;9635;52.078;8.648;2023-05-23T17:13:53;100898.06;;;17.38;40.56
19005;BME280;9635;52.078;8.648;2023-05-23T17:18:56;100893.09;;;17.52;40.71
19005;BME280;9635;52.078;8.648;2023-05-23T17:24:00;100901.59;;;19.53;39.23
19005;BME280;9635;52.078;8.648;2023-05-23T17:29:03;100894.78;;;19.24;37.79
19005;BME280;9635;52.078;8.648;2023-05-23T17:34:07;100891.00;;;21.86;34.66
19005;BME280;9635;52.078;8.648;2023-05-23T17:39:13;100895.63;;;19.98;36.34
19005;BME280;9635;52.078;8.648;2023-05-23T17:44:16;100897.06;;;18.35;39.42
19005;BME280;9635;52.078;8.648;2023-05-23T17:49:20;100902.06;;;17.70;40.06
19005;BME280;9635;52.078;8.648;2023-05-23T17:54:24;100907.69;;;15.95;43.36
19005;BME280;9635;52.078;8.648;2023-05-23T17:59:27;100905.28;;;14.85;44.97
19005;BME280;9635;52.078;8.648;2023-05-23T18:04:30;100912.88;;;14.50;45.81
19005;BME280;9635;52.078;8.648;2023-05-23T18:09:34;100916.75;;;14.57;46.94
19005;BME280;9635;52.078;8.648;2023-05-23T18:14:37;100924.06;;;14.15;47.16
19005;BME280;9635;52.078;8.648;2023-05-23T18:19:41;100927.19;;;13.89;49.52
19005;BME280;9635;52.078;8.648;2023-05-23T18:24:45;100935.38;;;13.78;49.76
19005;BME280;9635;52.078;8.648;2023-05-23T18:29:48;100921.63;;;13.60;50.13
19005;BME280;9635;52.078;8.648;2023-05-23T18:34:51;100927.97;;;13.27;50.68
19005;BME280;9635;52.078;8.648;2023-05-23T18:39:55;100939.19;;;13.22;50.78
19005;BME280;9635;52.078;8.648;2023-05-23T18:44:59;100953.09;;;12.95;50.86
19005;BME280;9635;52.078;8.648;2023-05-23T18:50:03;100951.03;;;12.88;51.73
19005;BME280;9635;52.078;8.648;2023-05-23T18:55:09;100955.72;;;12.74;51.75
19005;BME280;9635;52.078;8.648;2023-05-23T19:00:12;100963.06;;;12.61;52.30
19005;BME280;9635;52.078;8.648;2023-05-23T19:05:16;100973.75;;;12.40;52.68
19005;BME280;9635;52.078;8.648;2023-05-23T19:10:20;100980.53;;;12.22;53.88
19005;BME280;9635;52.078;8.648;2023-05-23T19:15:23;100997.53;;;12.11;53.69
19005;BME280;9635;52.078;8.648;2023-05-23T19:20:26;100999.38;;;11.99;54.20
19005;BME280;9635;52.078;8.648;2023-05-23T19:25:30;101002.91;;;11.64;53.97
19005;BME280;9635;52.078;8.648;2023-05-23T19:30:33;101020.28;;;11.36;54.22
19005;BME280;9635;52.078;8.648;2023-05-23T19:35:36;101012.19;;;11.12;53.30
19005;BME280;9635;52.078;8.648;2023-05-23T19:40:40;101026.03;;;11.19;53.45
19005;BME280;9635;52.078;8.648;2023-05-23T19:45:44;101024.00;;;10.97;53.82
19005;BME280;9635;52.078;8.648;2023-05-23T19:50:46;101025.97;;;10.95;53.62
19005;BME280;9635;52.078;8.648;2023-05-23T19:55:51;101040.72;;;10.76;53.69
19005;BME280;9635;52.078;8.648;2023-05-23T20:00:54;101038.50;;;10.70;54.14
19005;BME280;9635;52.078;8.648;2023-05-23T20:05:57;101041.63;;;10.64;54.26
19005;BME280;9635;52.078;8.648;2023-05-23T20:11:02;101050.59;;;9.99;54.72
19005;BME280;9635;52.078;8.648;2023-05-23T20:16:05;101051.81;;;10.33;54.64
19005;BME280;9635;52.078;8.648;2023-05-23T20:21:08;101058.59;;;10.26;54.36
19005;BME280;9635;52.078;8.648;2023-05-23T20:26:13;101057.91;;;10.23;54.44
19005;BME280;9635;52.078;8.648;2023-05-23T20:31:16;101074.75;;;10.12;54.87
19005;BME280;9635;52.078;8.648;2023-05-23T20:36:19;101072.72;;;10.03;55.46
19005;BME280;9635;52.078;8.648;2023-05-23T20:41:25;101077.22;;;9.75;55.77
19005;BME280;9635;52.078;8.648;2023-05-23T20:46:29;101085.69;;;9.96;56.13
19005;BME280;9635;52.078;8.648;2023-05-23T20:51:34;101089.06;;;9.85;56.48
19005;BME280;9635;52.078;8.648;2023-05-23T20:56:39;101092.19;;;9.65;56.40
19005;BME280;9635;52.078;8.648;2023-05-23T21:01:42;101095.56;;;9.68;56.52
19005;BME280;9635;52.078;8.648;2023-05-23T21:06:45;101100.25;;;9.65;56.52
19005;BME280;9635;52.078;8.648;2023-05-23T21:11:49;101100.63;;;9.32;56.92
19005;BME280;9635;52.078;8.648;2023-05-23T21:16:52;101095.38;;;9.30;57.28
19005;BME280;9635;52.078;8.648;2023-05-23T21:21:55;101105.50;;;9.39;57.26
19005;BME280;9635;52.078;8.648;2023-05-23T21:26:59;101106.31;;;9.27;57.56
19005;BME280;9635;52.078;8.648;2023-05-23T21:32:03;101113.84;;;9.35;58.12
19005;BME280;9635;52.078;8.648;2023-05-23T21:37:06;101117.97;;;9.26;57.94
19005;BME280;9635;52.078;8.648;2023-05-23T21:42:11;101110.34;;;9.05;58.98
19005;BME280;9635;52.078;8.648;2023-05-23T21:47:14;101103.75;;;8.97;59.84
19005;BME280;9635;52.078;8.648;2023-05-23T21:52:16;101091.41;;;8.94;59.80
19005;BME280;9635;52.078;8.648;2023-05-23T21:57:21;101093.41;;;8.76;60.19
19005;BME280;9635;52.078;8.648;2023-05-23T22:02:24;101096.88;;;8.78;60.38
19005;BME280;9635;52.078;8.648;2023-05-23T22:07:27;101093.78;;;8.56;60.84
19005;BME280;9635;52.078;8.648;2023-05-23T22:12:31;101086.03;;;8.66;60.83
19005;BME280;9635;52.078;8.648;2023-05-23T22:17:34;101092.75;;;8.58;61.40
19005;BME280;9635;52.078;8.648;2023-05-23T22:22:37;101098.28;;;8.70;61.10
19005;BME280;9635;52.078;8.648;2023-05-23T22:27:42;101092.44;;;8.63;61.16
19005;BME280;9635;52.078;8.648;2023-05-23T22:32:45;101089.38;;;8.55;61.63
19005;BME280;9635;52.078;8.648;2023-05-23T22:37:48;101092.00;;;8.40;61.82
19005;BME280;9635;52.078;8.648;2023-05-23T22:42:52;101096.53;;;8.10;62.67
19005;BME280;9635;52.078;8.648;2023-05-23T22:47:55;101102.09;;;8.21;62.99
19005;BME280;9635;52.078;8.648;2023-05-23T22:52:58;101100.69;;;8.30;62.84
19005;BME280;9635;52.078;8.648;2023-05-23T22:58:03;101104.66;;;8.23;62.97
19005;BME280;9635;52.078;8.648;2023-05-23T23:03:08;101107.31;;;8.08;63.53
19005;BME280;9635;52.078;8.648;2023-05-23T23:08:11;101093.47;;;8.16;63.66
19005;BME280;9635;52.078;8.648;2023-05-23T23:13:15;101097.38;;;8.10;63.60
19005;BME280;9635;52.078;8.648;2023-05-23T23:18:18;101091.88;;;7.98;63.82
19005;BME280;9635;52.078;8.648;2023-05-23T23:23:21;101098.22;;;7.81;64.44
19005;BME280;9635;52.078;8.648;2023-05-23T23:28:25;101103.16;;;7.72;64.80
19005;BME280;9635;52.078;8.648;2023-05-23T23:33:28;101108.78;;;7.68;65.44
19005;BME280;9635;52.078;8.648;2023-05-23T23:38:31;101099.56;;;7.58;65.92
19005;BME280;9635;52.078;8.648;2023-05-23T23:43:35;101106.19;;;7.66;65.83
19005;BME280;9635;52.078;8.648;2023-05-23T23:48:38;101109.31;;;7.59;65.96
19005;BME280;9635;52.078;8.648;2023-05-23T23:53:40;101102.59;;;7.52;66.22
19005;BME280;9635;52.078;8.648;2023-05-23T23:58:47;101106.19;;;7.50;66.32
